MSC Bremen — A8LK7 — position and weather

sailwx.info

Track history (hours):
 
Tides and Currents Weather Stations Pressure Air Temp Water Temp Dewpoint Dewpoint Depression Visibility Wind Speed Wind Dir Waves Ship Positions

MSC Bremen

Last reported at 2016-Jun-25 17:33 UTC. Time now 2016-Jun-25 17:56 UTC.
Position N 50°34' E 000°26'.

Length 294 m; ; draft 13.7 m.

Type: Ship (hazmat cat A). MMSI: 636091270.

Date/timePositionNaut miles runAvg speedWind from/ knotsBaromVisibWave heightAir tempDewpointWater temp
2016-Jun-25 17:33N 50°34' E 000°26'3812.4
2016-Jun-25 14:29N 50°54' E 001°17'1111.5
2016-Jun-25 13:33N 51°02' E 001°28'1212.4
2016-Jun-25 12:33N 51°11' E 001°42'1414.1
2016-Jun-25 11:33N 51°22' E 001°55'1211.7
2016-Jun-25 10:33N 51°21' E 002°14'1413.6
2016-Jun-25 09:33N 51°23' E 002°35'1414.4
2016-Jun-25 08:33N 51°25' E 002°58'1313.3
2016-Jun-25 07:33N 51°24' E 003°20'1414.1
2016-Jun-25 06:34N 51°25' E 003°42'1110.7
2016-Jun-25 05:34N 51°26' E 003°59'9 9.1
2016-Jun-25 04:33N 51°23' E 004°13'5 5.1
2016-Jun-25 03:31N 51°18' E 004°16'0 0.0
2016-Jun-25 02:31N 51°18' E 004°16'0 0.0
2016-Jun-25 01:31N 51°18' E 004°16'0 0.0
2016-Jun-25 00:31N 51°18' E 004°16'0 0.0
2016-Jun-24 23:31N 51°18' E 004°16'0 0.0
2016-Jun-24 22:31N 51°18' E 004°16'0 0.0
2016-Jun-24 21:31N 51°18' E 004°16'0 0.0
2016-Jun-24 20:31N 51°18' E 004°16'0 0.0
2016-Jun-24 19:31N 51°18' E 004°16'0 0.0
2016-Jun-24 18:31N 51°18' E 004°16'0 0.0
2016-Jun-24 17:31N 51°18' E 004°16'0 0.0
2016-Jun-24 16:31N 51°18' E 004°16'0 0.0
2016-Jun-24 15:31N 51°18' E 004°16'0 0.0
2016-Jun-24 14:31N 51°18' E 004°16'0 0.0
2016-Jun-24 13:31N 51°18' E 004°16'0 0.0
2016-Jun-24 12:31N 51°18' E 004°16'0 0.0
2016-Jun-24 11:31N 51°18' E 004°16'0 0.0
2016-Jun-24 10:31N 51°18' E 004°16'0 0.0
2016-Jun-24 09:31N 51°18' E 004°16'0 0.0
2016-Jun-24 08:31N 51°18' E 004°16'0 0.0
2016-Jun-24 07:31N 51°18' E 004°16'3 1.0
2016-Jun-24 04:33N 51°21' E 004°17'0 0.3
2016-Jun-24 03:33N 51°21' E 004°18'1 0.9
2016-Jun-24 02:33N 51°20' E 004°18'1 1.3
2016-Jun-24 01:32N 51°20' E 004°20'0 0.0
2016-Jun-24 00:32N 51°20' E 004°20'0 0.0
2016-Jun-23 23:32N 51°20' E 004°20'0 0.0
2016-Jun-23 22:32N 51°20' E 004°20'0 0.0
2016-Jun-23 21:32N 51°20' E 004°20'0 0.0
2016-Jun-23 20:29N 51°20' E 004°20'0 0.0
2016-Jun-23 19:32N 51°20' E 004°20'0 0.0
2016-Jun-23 18:32N 51°20' E 004°20'0 0.0
2016-Jun-23 17:32N 51°20' E 004°20'0 0.0
2016-Jun-23 16:32N 51°20' E 004°20'2 2.0
2016-Jun-23 15:33N 51°21' E 004°18'0 0.4
2016-Jun-23 14:34N 51°21' E 004°17'0 0.3
2016-Jun-23 13:34N 51°21' E 004°17'3 3.4
2016-Jun-23 12:34N 51°23' E 004°13'7 7.1
2016-Jun-23 11:34N 51°25' E 004°02'10 9.9
2016-Jun-23 10:34N 51°21' E 003°47'1010.3
2016-Jun-23 09:33N 51°25' E 003°32'1616.0
2016-Jun-23 08:33N 51°24' E 003°06'1111.3
2016-Jun-23 07:34N 51°35' E 003°09'16 8.1
2016-Jun-23 05:32N 51°51' E 003°13'2 1.7
2016-Jun-23 04:33N 51°52' E 003°15'1 0.6
2016-Jun-23 03:34N 51°51' E 003°15'5 4.4
2016-Jun-23 02:32N 51°55' E 003°19'6 6.5
2016-Jun-23 01:33N 52°01' E 003°20'9 9.0
2016-Jun-23 00:33N 52°10' E 003°22'1817.0
2016-Jun-22 23:30N 52°28' E 003°28'3517.7
2016-Jun-22 21:33N 52°56' E 003°60'1818.4
2016-Jun-22 20:34N 53°08' E 004°23'3215.8
2016-Jun-22 18:33N 53°33' E 004°55'1717.2
2016-Jun-22 17:33N 53°39' E 005°22'1918.8
2016-Jun-22 16:33N 53°45' E 005°52'2020.0
2016-Jun-22 15:33N 53°51' E 006°25'2120.9
2016-Jun-22 14:33N 53°55' E 006°59'2020.5
2016-Jun-22 13:33N 53°59' E 007°34'1515.0
2016-Jun-22 12:33N 53°52' E 007°56'1616.2
2016-Jun-22 11:34N 53°43' E 008°18'1111.2
2016-Jun-22 10:32N 53°35' E 008°32'0 0.0
2016-Jun-22 09:32N 53°35' E 008°32'0 0.0
2016-Jun-22 08:32N 53°35' E 008°32'0 0.0
2016-Jun-22 07:32N 53°35' E 008°32'0 0.0
2016-Jun-22 06:32N 53°35' E 008°32'0 0.0
2016-Jun-22 05:32N 53°35' E 008°32'0 0.0
2016-Jun-22 04:32N 53°35' E 008°32'0 0.0
2016-Jun-22 03:32N 53°35' E 008°32'0 0.0
2016-Jun-22 02:32N 53°35' E 008°32'0 0.0
2016-Jun-22 01:32N 53°35' E 008°32'0 0.0
2016-Jun-22 00:32N 53°35' E 008°32'0 0.0
2016-Jun-21 23:32N 53°35' E 008°32'0 0.0
2016-Jun-21 22:32N 53°35' E 008°32'0 0.0
2016-Jun-21 21:32N 53°35' E 008°32'0 0.0
2016-Jun-21 20:32N 53°35' E 008°32'0 0.0
2016-Jun-21 19:32N 53°35' E 008°32'0 0.0
2016-Jun-21 18:32N 53°35' E 008°32'0 0.0
2016-Jun-21 17:32N 53°35' E 008°32'0 0.0
2016-Jun-21 16:32N 53°35' E 008°32'0 0.0
2016-Jun-21 15:32N 53°35' E 008°32'0 0.0
2016-Jun-21 14:32N 53°35' E 008°32'0 0.0
2016-Jun-21 13:32N 53°35' E 008°32'0 0.0
2016-Jun-21 12:34N 53°35' E 008°32'1212.2
2016-Jun-21 11:33N 53°43' E 008°17'1818.3
2016-Jun-21 10:34N 53°56' E 007°55'1615.6
2016-Jun-21 09:33N 53°60' E 008°22'1414.5
2016-Jun-21 08:33N 53°53' E 008°43'1414.5
2016-Jun-21 07:33N 53°53' E 009°07'2713.4
2016-Jun-21 05:33N 53°34' E 009°40'9 8.9
2016-Jun-21 04:33N 53°32' E 009°54'0 0.1
2016-Jun-21 03:33N 53°32' E 009°54'0 0.0
2016-Jun-21 02:33N 53°32' E 009°54'0 0.0
2016-Jun-21 01:33N 53°32' E 009°54'0 0.0
2016-Jun-21 00:33N 53°32' E 009°54'0 0.0
2016-Jun-20 23:33N 53°32' E 009°54'0 0.0
2016-Jun-20 22:33N 53°32' E 009°54'0 0.0
2016-Jun-20 21:33N 53°32' E 009°54'5 4.9
2016-Jun-20 20:33N 53°34' E 009°46'1010.2
2016-Jun-20 19:33N 53°39' E 009°31'1111.1
2016-Jun-20 18:34N 53°48' E 009°22'1111.1
2016-Jun-20 17:34N 53°52' E 009°05'1212.4
2016-Jun-20 16:33N 53°52' E 008°44'1111.1
2016-Jun-20 15:33N 53°59' E 008°29'1313.0
2016-Jun-20 14:33N 53°59' E 008°07'7 6.9
2016-Jun-20 13:33N 53°58' E 007°55'7 7.2
2016-Jun-20 12:32N 53°56' E 007°43'1010.0
2016-Jun-20 11:34N 53°54' E 007°26'2221.9
2016-Jun-20 10:33N 53°49' E 006°50'2222.3
2016-Jun-20 09:34N 53°44' E 006°14'2322.6
2016-Jun-20 08:33N 53°36' E 005°38'2323.5
2016-Jun-20 07:33N 53°28' E 005°00'2221.8
2016-Jun-20 06:33N 53°13' E 004°34'2322.9
2016-Jun-20 05:33N 52°53' E 004°16'2322.6
2016-Jun-20 04:33N 52°35' E 003°52'6821.9
2016-Jun-20 01:27N 52°11' E 002°09'2022.5
2016-Jun-20 00:33N 51°55' E 001°49'8 8.2
2016-Jun-19 23:33N 51°51' E 001°37'1111.3
2016-Jun-19 22:33N 51°55' E 001°20'3 2.7
2016-Jun-19 21:32N 51°58' E 001°18'0 0.0
2016-Jun-19 20:32N 51°58' E 001°18'0 0.0
2016-Jun-19 19:32N 51°58' E 001°18'0 0.0
2016-Jun-19 18:32N 51°58' E 001°18'0 0.0
2016-Jun-19 17:32N 51°58' E 001°18'0 0.0
2016-Jun-19 16:32N 51°58' E 001°18'0 0.0
2016-Jun-19 15:32N 51°58' E 001°18'0 0.0
2016-Jun-19 14:32N 51°58' E 001°18'0 0.0
2016-Jun-19 13:32N 51°58' E 001°18'0 0.0
2016-Jun-19 12:32N 51°58' E 001°18'0 0.0
2016-Jun-19 11:32N 51°58' E 001°18'0 0.0
2016-Jun-19 10:32N 51°58' E 001°18'0 0.0
2016-Jun-19 09:32N 51°58' E 001°18'0 0.0
2016-Jun-19 08:32N 51°58' E 001°18'0 0.0
2016-Jun-19 07:32N 51°58' E 001°18'0 0.0
2016-Jun-19 06:32N 51°58' E 001°18'0 0.0
2016-Jun-19 05:32N 51°58' E 001°18'0 0.0
2016-Jun-19 04:32N 51°58' E 001°18'0 0.0
2016-Jun-19 03:32N 51°58' E 001°18'0 0.0
2016-Jun-19 02:32N 51°58' E 001°18'0 0.0
2016-Jun-19 01:32N 51°58' E 001°18'0 0.0
2016-Jun-19 00:32N 51°58' E 001°18'0 0.0
2016-Jun-18 23:32N 51°58' E 001°18'0 0.0
2016-Jun-18 22:32N 51°58' E 001°18'0 0.0
2016-Jun-18 21:32N 51°58' E 001°18'0 0.0
2016-Jun-18 20:32N 51°58' E 001°18'0 0.0
2016-Jun-18 19:32N 51°58' E 001°18'1 0.6
2016-Jun-18 18:33N 51°57' E 001°18'1010.1
2016-Jun-18 17:34N 51°54' E 001°34'9 8.8
2016-Jun-18 16:33N 51°51' E 001°47'1010.0
2016-Jun-18 15:33N 51°41' E 001°49'1616.4
2016-Jun-18 14:34N 51°26' E 002°00'1110.7
2016-Jun-18 13:34N 51°16' E 001°54'1615.7
2016-Jun-18 12:33N 51°04' E 001°38'1515.5
2016-Jun-18 11:34N 50°51' E 001°26'4414.7
2016-Jun-18 08:33N 50°24' E 000°30'1717.4
2016-Jun-18 07:34N 50°19' E 000°04'1818.1
2016-Jun-18 06:34N 50°02' W 000°05'1817.7
2016-Jun-18 05:34N 49°44' W 000°11'1414.4
2016-Jun-18 04:33N 49°31' W 000°03'8 7.7
2016-Jun-18 03:31N 49°28' E 000°08'0 0.0
2016-Jun-18 02:31N 49°28' E 000°08'0 0.0
2016-Jun-18 01:31N 49°28' E 000°08'0 0.0
2016-Jun-18 00:31N 49°28' E 000°08'0 0.0
2016-Jun-17 23:31N 49°28' E 000°08'0 0.0
2016-Jun-17 22:31N 49°28' E 000°08'0 0.0
2016-Jun-17 21:31N 49°28' E 000°08'0 0.0
2016-Jun-17 20:31N 49°28' E 000°08'0 0.0
2016-Jun-17 19:31N 49°28' E 000°08'0 0.0
2016-Jun-17 18:31N 49°28' E 000°08'1 1.2
2016-Jun-17 17:34N 49°28' E 000°06'1111.2
2016-Jun-17 16:33N 49°32' W 000°10'1010.3
2016-Jun-17 15:33N 49°37' W 000°23'1515.1
2016-Jun-17 14:34N 49°46' W 000°42'1716.6
2016-Jun-17 13:34N 49°52' W 001°07'1515.4
2016-Jun-17 12:33N 49°56' W 001°29'4414.7
2016-Jun-17 09:31N 49°52' W 002°38'1616.5
2016-Jun-17 08:33N 49°46' W 003°01'1717.3
2016-Jun-17 07:33N 49°37' W 003°24'7217.6
2016-Jun-17 03:30N 49°01' W 004°59'1819.2
2016-Jun-17 02:33N 48°51' W 005°22'  
Track history (hours):
 
Tides and Currents Weather Stations Pressure Air Temp Water Temp Dewpoint Dewpoint Depression Visibility Wind Speed Wind Dir Waves Ship Positions

MSC Bremen

Last reported at 2016-Jun-25 17:33 UTC. Time now 2016-Jun-25 17:56 UTC.
Position N 50°34' E 000°26'.

Length 294 m; ; draft 13.7 m.

Type: Ship (hazmat cat A). MMSI: 636091270.

Date/timePositionNaut miles runAvg speedWind from/ knotsBaromVisibWave heightAir tempDewpointWater temp
2016-Jun-25 17:33N 50°34' E 000°26'3812.4
2016-Jun-25 14:29N 50°54' E 001°17'1111.5
2016-Jun-25 13:33N 51°02' E 001°28'1212.4
2016-Jun-25 12:33N 51°11' E 001°42'1414.1
2016-Jun-25 11:33N 51°22' E 001°55'1211.7
2016-Jun-25 10:33N 51°21' E 002°14'1413.6
2016-Jun-25 09:33N 51°23' E 002°35'1414.4
2016-Jun-25 08:33N 51°25' E 002°58'1313.3
2016-Jun-25 07:33N 51°24' E 003°20'1414.1
2016-Jun-25 06:34N 51°25' E 003°42'1110.7
2016-Jun-25 05:34N 51°26' E 003°59'9 9.1
2016-Jun-25 04:33N 51°23' E 004°13'5 5.1
2016-Jun-25 03:31N 51°18' E 004°16'0 0.0
2016-Jun-25 02:31N 51°18' E 004°16'0 0.0
2016-Jun-25 01:31N 51°18' E 004°16'0 0.0
2016-Jun-25 00:31N 51°18' E 004°16'0 0.0
2016-Jun-24 23:31N 51°18' E 004°16'0 0.0
2016-Jun-24 22:31N 51°18' E 004°16'0 0.0
2016-Jun-24 21:31N 51°18' E 004°16'0 0.0
2016-Jun-24 20:31N 51°18' E 004°16'0 0.0
2016-Jun-24 19:31N 51°18' E 004°16'0 0.0
2016-Jun-24 18:31N 51°18' E 004°16'0 0.0
2016-Jun-24 17:31N 51°18' E 004°16'0 0.0
2016-Jun-24 16:31N 51°18' E 004°16'0 0.0
2016-Jun-24 15:31N 51°18' E 004°16'0 0.0
2016-Jun-24 14:31N 51°18' E 004°16'0 0.0
2016-Jun-24 13:31N 51°18' E 004°16'0 0.0
2016-Jun-24 12:31N 51°18' E 004°16'0 0.0
2016-Jun-24 11:31N 51°18' E 004°16'0 0.0
2016-Jun-24 10:31N 51°18' E 004°16'0 0.0
2016-Jun-24 09:31N 51°18' E 004°16'0 0.0
2016-Jun-24 08:31N 51°18' E 004°16'0 0.0
2016-Jun-24 07:31N 51°18' E 004°16'3 1.0
2016-Jun-24 04:33N 51°21' E 004°17'0 0.3
2016-Jun-24 03:33N 51°21' E 004°18'1 0.9
2016-Jun-24 02:33N 51°20' E 004°18'1 1.3
2016-Jun-24 01:32N 51°20' E 004°20'0 0.0
2016-Jun-24 00:32N 51°20' E 004°20'0 0.0
2016-Jun-23 23:32N 51°20' E 004°20'0 0.0
2016-Jun-23 22:32N 51°20' E 004°20'0 0.0
2016-Jun-23 21:32N 51°20' E 004°20'0 0.0
2016-Jun-23 20:29N 51°20' E 004°20'0 0.0
2016-Jun-23 19:32N 51°20' E 004°20'0 0.0
2016-Jun-23 18:32N 51°20' E 004°20'0 0.0
2016-Jun-23 17:32N 51°20' E 004°20'0 0.0
2016-Jun-23 16:32N 51°20' E 004°20'2 2.0
2016-Jun-23 15:33N 51°21' E 004°18'0 0.4
2016-Jun-23 14:34N 51°21' E 004°17'0 0.3
2016-Jun-23 13:34N 51°21' E 004°17'3 3.4
2016-Jun-23 12:34N 51°23' E 004°13'7 7.1
2016-Jun-23 11:34N 51°25' E 004°02'10 9.9
2016-Jun-23 10:34N 51°21' E 003°47'1010.3
2016-Jun-23 09:33N 51°25' E 003°32'1616.0
2016-Jun-23 08:33N 51°24' E 003°06'1111.3
2016-Jun-23 07:34N 51°35' E 003°09'16 8.1
2016-Jun-23 05:32N 51°51' E 003°13'2 1.7
2016-Jun-23 04:33N 51°52' E 003°15'1 0.6
2016-Jun-23 03:34N 51°51' E 003°15'5 4.4
2016-Jun-23 02:32N 51°55' E 003°19'6 6.5
2016-Jun-23 01:33N 52°01' E 003°20'9 9.0
2016-Jun-23 00:33N 52°10' E 003°22'1817.0
2016-Jun-22 23:30N 52°28' E 003°28'3517.7
2016-Jun-22 21:33N 52°56' E 003°60'1818.4
2016-Jun-22 20:34N 53°08' E 004°23'3215.8
2016-Jun-22 18:33N 53°33' E 004°55'1717.2
2016-Jun-22 17:33N 53°39' E 005°22'1918.8
2016-Jun-22 16:33N 53°45' E 005°52'2020.0
2016-Jun-22 15:33N 53°51' E 006°25'2120.9
2016-Jun-22 14:33N 53°55' E 006°59'2020.5
2016-Jun-22 13:33N 53°59' E 007°34'1515.0
2016-Jun-22 12:33N 53°52' E 007°56'1616.2
2016-Jun-22 11:34N 53°43' E 008°18'1111.2
2016-Jun-22 10:32N 53°35' E 008°32'0 0.0
2016-Jun-22 09:32N 53°35' E 008°32'0 0.0
2016-Jun-22 08:32N 53°35' E 008°32'0 0.0
2016-Jun-22 07:32N 53°35' E 008°32'0 0.0
2016-Jun-22 06:32N 53°35' E 008°32'0 0.0
2016-Jun-22 05:32N 53°35' E 008°32'0 0.0
2016-Jun-22 04:32N 53°35' E 008°32'0 0.0
2016-Jun-22 03:32N 53°35' E 008°32'0 0.0
2016-Jun-22 02:32N 53°35' E 008°32'0 0.0
2016-Jun-22 01:32N 53°35' E 008°32'0 0.0
2016-Jun-22 00:32N 53°35' E 008°32'0 0.0
2016-Jun-21 23:32N 53°35' E 008°32'0 0.0
2016-Jun-21 22:32N 53°35' E 008°32'0 0.0
2016-Jun-21 21:32N 53°35' E 008°32'0 0.0
2016-Jun-21 20:32N 53°35' E 008°32'0 0.0
2016-Jun-21 19:32N 53°35' E 008°32'0 0.0
2016-Jun-21 18:32N 53°35' E 008°32'0 0.0
2016-Jun-21 17:32N 53°35' E 008°32'0 0.0
2016-Jun-21 16:32N 53°35' E 008°32'0 0.0
2016-Jun-21 15:32N 53°35' E 008°32'0 0.0
2016-Jun-21 14:32N 53°35' E 008°32'0 0.0
2016-Jun-21 13:32N 53°35' E 008°32'0 0.0
2016-Jun-21 12:34N 53°35' E 008°32'1212.2
2016-Jun-21 11:33N 53°43' E 008°17'1818.3
2016-Jun-21 10:34N 53°56' E 007°55'1615.6
2016-Jun-21 09:33N 53°60' E 008°22'1414.5
2016-Jun-21 08:33N 53°53' E 008°43'1414.5
2016-Jun-21 07:33N 53°53' E 009°07'2713.4
2016-Jun-21 05:33N 53°34' E 009°40'9 8.9
2016-Jun-21 04:33N 53°32' E 009°54'0 0.1
2016-Jun-21 03:33N 53°32' E 009°54'0 0.0
2016-Jun-21 02:33N 53°32' E 009°54'0 0.0
2016-Jun-21 01:33N 53°32' E 009°54'0 0.0
2016-Jun-21 00:33N 53°32' E 009°54'0 0.0
2016-Jun-20 23:33N 53°32' E 009°54'0 0.0
2016-Jun-20 22:33N 53°32' E 009°54'0 0.0
2016-Jun-20 21:33N 53°32' E 009°54'5 4.9
2016-Jun-20 20:33N 53°34' E 009°46'1010.2
2016-Jun-20 19:33N 53°39' E 009°31'1111.1
2016-Jun-20 18:34N 53°48' E 009°22'1111.1
2016-Jun-20 17:34N 53°52' E 009°05'1212.4
2016-Jun-20 16:33N 53°52' E 008°44'1111.1
2016-Jun-20 15:33N 53°59' E 008°29'1313.0
2016-Jun-20 14:33N 53°59' E 008°07'7 6.9
2016-Jun-20 13:33N 53°58' E 007°55'7 7.2
2016-Jun-20 12:32N 53°56' E 007°43'1010.0
2016-Jun-20 11:34N 53°54' E 007°26'2221.9
2016-Jun-20 10:33N 53°49' E 006°50'2222.3
2016-Jun-20 09:34N 53°44' E 006°14'2322.6
2016-Jun-20 08:33N 53°36' E 005°38'2323.5
2016-Jun-20 07:33N 53°28' E 005°00'2221.8
2016-Jun-20 06:33N 53°13' E 004°34'2322.9
2016-Jun-20 05:33N 52°53' E 004°16'2322.6
2016-Jun-20 04:33N 52°35' E 003°52'6821.9
2016-Jun-20 01:27N 52°11' E 002°09'2022.5
2016-Jun-20 00:33N 51°55' E 001°49'8 8.2
2016-Jun-19 23:33N 51°51' E 001°37'1111.3
2016-Jun-19 22:33N 51°55' E 001°20'3 2.7
2016-Jun-19 21:32N 51°58' E 001°18'0 0.0
2016-Jun-19 20:32N 51°58' E 001°18'0 0.0
2016-Jun-19 19:32N 51°58' E 001°18'0 0.0
2016-Jun-19 18:32N 51°58' E 001°18'0 0.0
2016-Jun-19 17:32N 51°58' E 001°18'0 0.0
2016-Jun-19 16:32N 51°58' E 001°18'0 0.0
2016-Jun-19 15:32N 51°58' E 001°18'0 0.0
2016-Jun-19 14:32N 51°58' E 001°18'0 0.0
2016-Jun-19 13:32N 51°58' E 001°18'0 0.0
2016-Jun-19 12:32N 51°58' E 001°18'0 0.0
2016-Jun-19 11:32N 51°58' E 001°18'0 0.0
2016-Jun-19 10:32N 51°58' E 001°18'0 0.0
2016-Jun-19 09:32N 51°58' E 001°18'0 0.0
2016-Jun-19 08:32N 51°58' E 001°18'0 0.0
2016-Jun-19 07:32N 51°58' E 001°18'0 0.0
2016-Jun-19 06:32N 51°58' E 001°18'0 0.0
2016-Jun-19 05:32N 51°58' E 001°18'0 0.0
2016-Jun-19 04:32N 51°58' E 001°18'0 0.0
2016-Jun-19 03:32N 51°58' E 001°18'0 0.0
2016-Jun-19 02:32N 51°58' E 001°18'0 0.0
2016-Jun-19 01:32N 51°58' E 001°18'0 0.0
2016-Jun-19 00:32N 51°58' E 001°18'0 0.0
2016-Jun-18 23:32N 51°58' E 001°18'0 0.0
2016-Jun-18 22:32N 51°58' E 001°18'0 0.0
2016-Jun-18 21:32N 51°58' E 001°18'0 0.0
2016-Jun-18 20:32N 51°58' E 001°18'0 0.0
2016-Jun-18 19:32N 51°58' E 001°18'1 0.6
2016-Jun-18 18:33N 51°57' E 001°18'1010.1
2016-Jun-18 17:34N 51°54' E 001°34'9 8.8
2016-Jun-18 16:33N 51°51' E 001°47'1010.0
2016-Jun-18 15:33N 51°41' E 001°49'1616.4
2016-Jun-18 14:34N 51°26' E 002°00'1110.7
2016-Jun-18 13:34N 51°16' E 001°54'1615.7
2016-Jun-18 12:33N 51°04' E 001°38'1515.5
2016-Jun-18 11:34N 50°51' E 001°26'4414.7
2016-Jun-18 08:33N 50°24' E 000°30'1717.4
2016-Jun-18 07:34N 50°19' E 000°04'1818.1
2016-Jun-18 06:34N 50°02' W 000°05'1817.7
2016-Jun-18 05:34N 49°44' W 000°11'1414.4
2016-Jun-18 04:33N 49°31' W 000°03'8 7.7
2016-Jun-18 03:31N 49°28' E 000°08'0 0.0
2016-Jun-18 02:31N 49°28' E 000°08'0 0.0
2016-Jun-18 01:31N 49°28' E 000°08'0 0.0
2016-Jun-18 00:31N 49°28' E 000°08'0 0.0
2016-Jun-17 23:31N 49°28' E 000°08'0 0.0
2016-Jun-17 22:31N 49°28' E 000°08'0 0.0
2016-Jun-17 21:31N 49°28' E 000°08'0 0.0
2016-Jun-17 20:31N 49°28' E 000°08'0 0.0
2016-Jun-17 19:31N 49°28' E 000°08'0 0.0
2016-Jun-17 18:31N 49°28' E 000°08'1 1.2
2016-Jun-17 17:34N 49°28' E 000°06'1111.2
2016-Jun-17 16:33N 49°32' W 000°10'1010.3
2016-Jun-17 15:33N 49°37' W 000°23'1515.1
2016-Jun-17 14:34N 49°46' W 000°42'1716.6
2016-Jun-17 13:34N 49°52' W 001°07'1515.4
2016-Jun-17 12:33N 49°56' W 001°29'4414.7
2016-Jun-17 09:31N 49°52' W 002°38'1616.5
2016-Jun-17 08:33N 49°46' W 003°01'1717.3
2016-Jun-17 07:33N 49°37' W 003°24'7217.6
2016-Jun-17 03:30N 49°01' W 004°59'1819.2
2016-Jun-17 02:33N 48°51' W 005°22'  

Dump ship's entire track history